createdAt,value
2023-01-19T00:00:52.355Z,62.60
2023-01-19T00:03:19.084Z,62.70
2023-01-19T00:05:47.815Z,62.90
2023-01-19T00:08:15.057Z,62.80
2023-01-19T00:10:47.940Z,62.70
2023-01-19T00:13:15.116Z,62.60
2023-01-19T00:15:41.801Z,62.20
2023-01-19T00:18:10.615Z,62.00
2023-01-19T00:20:38.272Z,61.60
2023-01-19T00:23:05.266Z,61.60
2023-01-19T00:25:32.067Z,61.70
2023-01-19T00:28:01.360Z,61.60
2023-01-19T00:30:28.657Z,61.60
2023-01-19T00:32:55.911Z,61.70
2023-01-19T00:35:22.598Z,61.90
2023-01-19T00:37:49.308Z,61.90
2023-01-19T00:40:16.143Z,62.10
2023-01-19T00:42:45.943Z,62.10
2023-01-19T00:45:14.043Z,62.10
2023-01-19T00:47:40.931Z,62.10
2023-01-19T00:50:11.799Z,62.20
2023-01-19T00:52:39.918Z,62.40
2023-01-19T00:55:08.107Z,62.40
2023-01-19T00:57:35.119Z,62.60
2023-01-19T01:00:02.124Z,62.70
2023-01-19T01:02:29.002Z,62.90
2023-01-19T01:04:56.749Z,63.10
2023-01-19T01:07:24.430Z,63.40
2023-01-19T01:09:51.325Z,63.80
2023-01-19T01:12:18.001Z,64.10
2023-01-19T01:14:44.806Z,64.40
2023-01-19T01:17:14.165Z,64.50
2023-01-19T01:19:41.733Z,64.40
2023-01-19T01:22:10.110Z,64.50
2023-01-19T01:24:36.780Z,64.70
2023-01-19T01:27:03.634Z,64.70
2023-01-19T01:29:30.392Z,64.70
2023-01-19T01:31:57.085Z,64.70
2023-01-19T01:34:23.829Z,64.70
2023-01-19T01:36:50.580Z,64.90
2023-01-19T01:39:17.245Z,64.90
2023-01-19T01:41:43.983Z,65.00
2023-01-19T01:44:50.261Z,65.20
2023-01-19T01:47:34.473Z,65.40
2023-01-19T01:51:03.285Z,65.60
2023-01-19T01:53:32.693Z,65.90
2023-01-19T01:56:02.558Z,65.90
2023-01-19T01:58:32.465Z,66.20
2023-01-19T02:01:17.719Z,66.50
2023-01-19T02:03:44.750Z,66.70
2023-01-19T02:06:13.521Z,66.80
2023-01-19T02:09:09.248Z,67.10
2023-01-19T02:11:54.914Z,67.30
2023-01-19T02:14:22.618Z,67.30
2023-01-19T02:16:49.484Z,67.60
2023-01-19T02:19:30.994Z,67.80
2023-01-19T02:22:09.558Z,68.00
2023-01-19T02:24:36.345Z,68.00
2023-01-19T02:27:04.686Z,68.00
2023-01-19T02:29:33.611Z,68.10
2023-01-19T02:32:02.105Z,68.10
2023-01-19T02:34:29.750Z,68.00
2023-01-19T02:37:06.598Z,67.70
2023-01-19T02:39:46.671Z,67.70
2023-01-19T02:42:20.432Z,67.60
2023-01-19T02:44:50.164Z,67.30
2023-01-19T02:47:16.858Z,67.00
2023-01-19T02:49:43.635Z,66.90
2023-01-19T02:52:17.810Z,67.00
2023-01-19T02:55:02.271Z,66.90
2023-01-19T02:57:51.603Z,67.00
2023-01-19T03:00:33.746Z,66.80
2023-01-19T03:03:27.015Z,66.80
2023-01-19T03:06:08.310Z,66.50
2023-01-19T03:09:00.180Z,66.30
2023-01-19T03:11:33.698Z,66.10
2023-01-19T03:14:14.612Z,66.20
2023-01-19T03:16:48.698Z,66.10
2023-01-19T03:19:29.870Z,65.80
2023-01-19T03:22:00.186Z,65.70
2023-01-19T03:24:31.437Z,65.80
2023-01-19T03:27:06.975Z,65.60
2023-01-19T03:29:35.853Z,65.60
2023-01-19T03:32:06.040Z,65.70
2023-01-19T03:34:34.589Z,65.50
2023-01-19T03:37:04.237Z,65.60
2023-01-19T03:39:31.542Z,65.60
2023-01-19T03:42:11.696Z,65.50
2023-01-19T03:44:40.268Z,65.50
2023-01-19T03:47:08.713Z,65.50
2023-01-19T03:49:37.766Z,65.50
2023-01-19T03:52:05.278Z,65.60
2023-01-19T03:54:32.316Z,65.50
2023-01-19T03:56:59.331Z,65.50
2023-01-19T03:59:26.032Z,65.40
2023-01-19T04:01:52.759Z,65.40
2023-01-19T04:04:19.450Z,65.30
2023-01-19T04:06:46.133Z,65.10
2023-01-19T04:09:12.868Z,65.50
2023-01-19T04:11:39.683Z,64.90
2023-01-19T04:14:06.369Z,64.90
2023-01-19T04:16:33.013Z,64.90
2023-01-19T04:18:59.644Z,64.90
2023-01-19T04:21:26.275Z,64.90
2023-01-19T04:23:53.235Z,64.90
2023-01-19T04:26:20.349Z,64.80
2023-01-19T04:28:47.006Z,64.70
2023-01-19T04:31:14.328Z,64.70
2023-01-19T04:33:41.290Z,64.80
2023-01-19T04:36:08.668Z,64.70
2023-01-19T04:38:35.788Z,64.50
2023-01-19T04:41:02.548Z,64.30
2023-01-19T04:43:29.246Z,64.40
2023-01-19T04:45:55.925Z,64.30
2023-01-19T04:48:22.780Z,64.10
2023-01-19T04:50:52.186Z,64.10
2023-01-19T04:53:18.884Z,64.00
2023-01-19T04:55:46.640Z,64.00
2023-01-19T04:58:13.298Z,63.90
2023-01-19T05:00:39.927Z,64.20
2023-01-19T05:03:06.652Z,64.30
2023-01-19T05:05:33.421Z,64.20
2023-01-19T05:08:00.594Z,64.10
2023-01-19T05:10:27.390Z,64.30
2023-01-19T05:12:54.538Z,64.30
2023-01-19T05:15:21.311Z,64.50
2023-01-19T05:17:48.053Z,64.60
2023-01-19T05:20:17.328Z,64.60
2023-01-19T05:22:54.056Z,64.90
2023-01-19T05:25:20.940Z,64.80
2023-01-19T05:27:47.897Z,64.90
2023-01-19T05:30:14.842Z,65.10
2023-01-19T05:32:41.673Z,65.20
2023-01-19T05:35:08.884Z,65.30
2023-01-19T05:37:35.611Z,65.40
2023-01-19T05:40:02.300Z,65.50
2023-01-19T05:42:30.344Z,65.50
2023-01-19T05:44:59.505Z,66.20
2023-01-19T05:47:26.424Z,65.60
2023-01-19T05:49:53.152Z,65.50
2023-01-19T05:52:19.831Z,65.50
2023-01-19T05:54:46.570Z,65.50
2023-01-19T05:57:13.321Z,65.60
2023-01-19T05:59:40.400Z,65.50
2023-01-19T06:02:07.132Z,65.50
2023-01-19T06:04:33.832Z,65.30
2023-01-19T06:07:02.148Z,65.30
2023-01-19T06:09:29.290Z,65.20
2023-01-19T06:11:57.645Z,65.10
2023-01-19T06:14:25.078Z,65.10
2023-01-19T06:16:52.251Z,65.00
2023-01-19T06:19:19.126Z,64.80
2023-01-19T06:21:49.749Z,64.70
2023-01-19T06:24:16.594Z,64.40
2023-01-19T06:26:43.745Z,64.20
2023-01-19T06:29:12.177Z,64.00
2023-01-19T06:31:38.949Z,63.70
2023-01-19T06:34:05.952Z,63.50
2023-01-19T06:36:32.597Z,63.30
2023-01-19T06:38:59.286Z,63.00
2023-01-19T06:41:25.956Z,62.80
2023-01-19T06:43:52.600Z,62.70
2023-01-19T06:46:19.254Z,62.60
2023-01-19T06:48:47.016Z,62.40
2023-01-19T06:51:13.719Z,62.10
2023-01-19T06:53:40.429Z,62.10
2023-01-19T06:56:08.111Z,62.00
2023-01-19T06:58:35.016Z,61.70
2023-01-19T07:01:03.878Z,61.60
2023-01-19T07:03:30.877Z,61.30
2023-01-19T07:05:57.817Z,61.50
2023-01-19T07:08:24.571Z,61.20
2023-01-19T07:11:25.361Z,60.90
2023-01-19T07:13:39.980Z,60.70
2023-01-19T07:16:10.711Z,60.50
2023-01-19T07:18:38.304Z,60.50
2023-01-19T07:21:05.275Z,60.50
2023-01-19T07:23:32.007Z,60.60
2023-01-19T07:26:01.629Z,60.80
2023-01-19T07:28:29.832Z,60.50
2023-01-19T07:30:56.793Z,60.50
2023-01-19T07:33:25.783Z,60.60
2023-01-19T07:35:52.949Z,60.70
2023-01-19T07:38:20.441Z,61.20
2023-01-19T07:40:47.286Z,61.80
2023-01-19T07:43:15.081Z,62.20
2023-01-19T07:45:42.077Z,62.30
2023-01-19T07:48:08.920Z,62.50
2023-01-19T07:50:35.604Z,62.60
2023-01-19T07:53:07.299Z,62.60
2023-01-19T07:55:34.334Z,62.70
2023-01-19T07:58:01.015Z,62.70
2023-01-19T08:00:27.809Z,62.80
2023-01-19T08:03:00.185Z,62.70
2023-01-19T08:05:29.191Z,62.80
2023-01-19T08:08:00.397Z,62.80
2023-01-19T08:10:28.452Z,62.70
2023-01-19T08:12:56.342Z,62.70
2023-01-19T08:15:24.683Z,62.70
2023-01-19T08:18:00.002Z,62.60
2023-01-19T08:20:27.831Z,62.30
2023-01-19T08:23:02.864Z,62.20
2023-01-19T08:25:38.441Z,62.20
2023-01-19T08:28:06.894Z,62.10
2023-01-19T08:30:33.713Z,61.90
2023-01-19T08:33:09.462Z,61.70
2023-01-19T08:35:41.324Z,61.70
2023-01-19T08:38:09.700Z,61.60
2023-01-19T08:40:39.103Z,61.60
2023-01-19T08:43:08.356Z,62.00
2023-01-19T08:45:36.868Z,62.60
2023-01-19T08:48:04.630Z,63.20
2023-01-19T08:50:32.437Z,63.60
2023-01-19T08:53:01.417Z,64.00
2023-01-19T08:55:29.506Z,64.50
2023-01-19T08:57:58.170Z,64.80
2023-01-19T09:00:27.172Z,65.00
2023-01-19T09:02:54.909Z,65.30
2023-01-19T09:05:22.280Z,65.20
2023-01-19T09:07:49.906Z,65.20
2023-01-19T09:10:17.618Z,65.40
2023-01-19T09:12:45.093Z,65.50
2023-01-19T09:15:16.304Z,65.40
2023-01-19T09:17:42.982Z,65.30
2023-01-19T09:20:10.420Z,65.20
2023-01-19T09:22:41.741Z,65.20
2023-01-19T09:25:09.764Z,64.90
2023-01-19T09:27:36.388Z,64.70
2023-01-19T09:30:04.395Z,64.70
2023-01-19T09:32:31.208Z,64.90
2023-01-19T09:34:58.109Z,65.00
2023-01-19T09:37:24.752Z,65.10
2023-01-19T09:39:51.541Z,65.30
2023-01-19T09:42:30.621Z,65.40
2023-01-19T09:44:57.337Z,65.60
2023-01-19T09:47:28.195Z,65.60
2023-01-19T09:50:03.195Z,65.80
2023-01-19T09:52:35.920Z,66.00
2023-01-19T09:55:02.740Z,66.00
2023-01-19T09:57:35.998Z,65.90
2023-01-19T10:00:11.215Z,65.70
2023-01-19T10:03:05.109Z,65.70
2023-01-19T10:05:47.084Z,65.80
2023-01-19T10:08:28.786Z,65.40
2023-01-19T10:10:57.792Z,65.00
2023-01-19T10:14:05.624Z,64.80
2023-01-19T10:16:40.684Z,64.60
2023-01-19T10:19:29.348Z,64.20
2023-01-19T10:21:57.800Z,63.80
2023-01-19T10:24:29.962Z,64.00
2023-01-19T10:26:57.194Z,63.60
2023-01-19T10:29:35.447Z,63.50
2023-01-19T10:32:12.993Z,63.30
2023-01-19T10:34:41.548Z,63.40
2023-01-19T10:37:25.694Z,63.90
2023-01-19T10:39:56.085Z,63.20
2023-01-19T10:42:22.797Z,63.30
2023-01-19T10:44:50.260Z,63.70
2023-01-19T10:47:23.486Z,63.70
2023-01-19T10:49:50.516Z,63.20
2023-01-19T10:52:26.028Z,63.00
2023-01-19T10:54:52.971Z,60.80
2023-01-19T10:57:43.248Z,60.80
2023-01-19T11:00:38.055Z,61.00
2023-01-19T11:03:22.406Z,60.50
2023-01-19T11:05:49.354Z,60.60
2023-01-19T11:08:28.677Z,60.60
2023-01-19T11:11:05.236Z,61.00
2023-01-19T11:13:32.504Z,59.60
2023-01-19T11:16:20.086Z,59.60
2023-01-19T11:18:52.239Z,57.60
2023-01-19T11:21:25.991Z,57.20
2023-01-19T11:24:02.170Z,58.00
2023-01-19T11:29:19.158Z,57.80
2023-01-19T11:31:46.205Z,57.50
2023-01-19T11:34:26.988Z,57.80
2023-01-19T11:37:24.400Z,56.70
2023-01-19T11:39:53.416Z,56.40
2023-01-19T11:42:20.562Z,56.80
2023-01-19T11:47:27.133Z,57.90
2023-01-19T11:50:03.198Z,59.60
2023-01-19T11:55:41.318Z,56.90
2023-01-19T11:58:17.559Z,52.40
2023-01-19T12:01:04.091Z,53.00
2023-01-19T12:03:55.456Z,51.90
2023-01-19T12:06:28.352Z,52.40
2023-01-19T12:09:11.348Z,50.60
2023-01-19T12:14:42.180Z,56.40
2023-01-19T12:30:02.720Z,50.30
2023-01-19T12:32:34.568Z,48.60
2023-01-19T12:35:01.430Z,48.70
2023-01-19T12:37:28.942Z,47.60
2023-01-19T12:40:02.901Z,48.30
2023-01-19T12:42:30.219Z,48.20
2023-01-19T12:45:08.754Z,47.70
2023-01-19T12:47:37.146Z,47.50
2023-01-19T12:50:13.249Z,47.60
2023-01-19T12:52:51.199Z,48.00
2023-01-19T12:55:38.994Z,45.80
2023-01-19T12:58:18.827Z,46.90
2023-01-19T13:00:48.903Z,46.90
2023-01-19T13:03:25.644Z,47.10
2023-01-19T13:05:56.784Z,47.20
2023-01-19T13:08:56.134Z,45.20
2023-01-19T13:11:25.973Z,43.80
2023-01-19T13:13:59.416Z,43.90
2023-01-19T13:16:27.372Z,44.10
2023-01-19T13:19:06.216Z,44.50
2023-01-19T13:21:36.198Z,44.50
2023-01-19T13:24:05.765Z,44.10
2023-01-19T13:26:33.519Z,43.60
2023-01-19T13:29:26.516Z,43.50
2023-01-19T13:31:55.426Z,44.20
2023-01-19T13:34:27.719Z,44.30
2023-01-19T13:36:57.051Z,44.10
2023-01-19T13:39:40.951Z,43.40
2023-01-19T13:42:16.743Z,43.00
2023-01-19T13:44:52.234Z,42.70
2023-01-19T13:47:33.289Z,42.60
2023-01-19T13:50:01.753Z,40.80
2023-01-19T13:52:29.734Z,41.50
2023-01-19T13:55:03.671Z,42.20
2023-01-19T13:57:31.754Z,41.20
2023-01-19T14:00:14.530Z,42.20
2023-01-19T14:03:01.076Z,42.40
2023-01-19T14:05:33.508Z,41.70
2023-01-19T14:08:12.296Z,42.30
2023-01-19T14:10:41.999Z,43.00
2023-01-19T14:13:25.014Z,41.40
2023-01-19T14:15:55.479Z,40.40
2023-01-19T14:18:24.680Z,41.30
2023-01-19T14:20:54.167Z,43.00
2023-01-19T14:23:42.364Z,42.60
2023-01-19T14:26:37.088Z,41.00
2023-01-19T14:29:27.034Z,41.80
2023-01-19T14:32:12.839Z,40.70
2023-01-19T14:35:04.530Z,41.20
2023-01-19T14:37:37.277Z,42.10
2023-01-19T14:40:20.295Z,43.90
2023-01-19T14:43:03.181Z,42.00
2023-01-19T14:45:41.303Z,43.40
2023-01-19T14:48:22.250Z,41.90
2023-01-19T14:51:02.744Z,42.00
2023-01-19T14:53:36.611Z,41.90
2023-01-19T14:56:05.617Z,42.60
2023-01-19T14:58:36.120Z,42.40
2023-01-19T15:01:03.150Z,41.60
2023-01-19T15:03:43.710Z,41.40
2023-01-19T15:06:20.160Z,41.40
2023-01-19T15:08:49.987Z,41.60
2023-01-19T15:11:24.885Z,41.80
2023-01-19T15:13:51.990Z,41.60
2023-01-19T15:16:19.486Z,41.80
2023-01-19T15:18:46.284Z,42.10
2023-01-19T15:21:19.986Z,42.80
2023-01-19T15:23:47.661Z,44.10
2023-01-19T15:26:17.510Z,43.00
2023-01-19T15:28:45.452Z,43.20
2023-01-19T15:31:16.075Z,43.10
2023-01-19T15:33:43.066Z,42.40
2023-01-19T15:36:21.758Z,42.90
2023-01-19T15:38:50.855Z,42.20
2023-01-19T15:41:23.522Z,43.10
2023-01-19T15:43:50.652Z,43.30
2023-01-19T15:46:20.628Z,43.90
2023-01-19T15:48:48.259Z,44.90
2023-01-19T15:51:20.097Z,45.00
2023-01-19T15:53:47.481Z,44.40
2023-01-19T15:56:15.908Z,44.40
2023-01-19T15:58:43.537Z,44.90
2023-01-19T16:01:13.244Z,45.40
2023-01-19T16:03:40.138Z,44.70
2023-01-19T16:06:07.241Z,45.30
2023-01-19T16:08:34.187Z,46.10
2023-01-19T16:11:09.733Z,46.40
2023-01-19T16:13:36.837Z,46.90
2023-01-19T16:16:05.409Z,47.90
2023-01-19T16:18:32.318Z,47.90
2023-01-19T16:20:59.103Z,47.70
2023-01-19T16:23:26.049Z,47.80
2023-01-19T16:26:04.883Z,47.90
2023-01-19T16:28:31.946Z,47.90
2023-01-19T16:30:58.761Z,48.10
2023-01-19T16:33:25.474Z,47.50
2023-01-19T16:35:52.556Z,48.10
2023-01-19T16:38:19.373Z,48.10
2023-01-19T16:40:47.459Z,48.20
2023-01-19T16:43:18.243Z,48.20
2023-01-19T16:46:00.129Z,48.10
2023-01-19T16:48:27.473Z,48.30
2023-01-19T16:51:03.054Z,47.80
2023-01-19T16:53:30.611Z,47.60
2023-01-19T16:55:57.488Z,47.80
2023-01-19T16:58:24.447Z,47.80
2023-01-19T17:00:51.314Z,48.30
2023-01-19T17:03:18.033Z,47.70
2023-01-19T17:05:49.987Z,47.50
2023-01-19T17:08:19.698Z,47.80
2023-01-19T17:10:47.729Z,48.10
2023-01-19T17:13:14.482Z,48.10
2023-01-19T17:15:41.309Z,48.20
2023-01-19T17:18:10.002Z,48.10
2023-01-19T17:20:36.863Z,48.70
2023-01-19T17:23:03.601Z,48.20
2023-01-19T17:25:30.367Z,48.30
2023-01-19T17:28:00.280Z,48.40
2023-01-19T17:30:27.405Z,48.40
2023-01-19T17:32:54.124Z,48.40
2023-01-19T17:35:20.942Z,48.40
2023-01-19T17:37:47.709Z,48.30
2023-01-19T17:40:14.937Z,48.10
2023-01-19T17:42:41.950Z,48.10
2023-01-19T17:45:10.838Z,48.10
2023-01-19T17:47:38.120Z,48.00
2023-01-19T17:50:05.428Z,48.10
2023-01-19T17:52:32.155Z,48.00
2023-01-19T17:54:58.824Z,48.00
2023-01-19T17:57:25.458Z,48.10
2023-01-19T17:59:53.327Z,48.20
2023-01-19T18:02:24.305Z,48.30
2023-01-19T18:04:52.821Z,48.30
2023-01-19T18:07:19.763Z,48.30
2023-01-19T18:09:46.406Z,48.50
2023-01-19T18:12:13.438Z,48.70
2023-01-19T18:14:41.026Z,48.90
2023-01-19T18:17:08.127Z,49.30
2023-01-19T18:19:34.857Z,49.20
2023-01-19T18:22:01.683Z,49.00
2023-01-19T18:24:28.598Z,48.80
2023-01-19T18:26:55.810Z,49.30
2023-01-19T18:29:22.993Z,48.60
2023-01-19T18:31:49.692Z,48.40
2023-01-19T18:34:16.353Z,48.30
2023-01-19T18:36:43.120Z,48.70
2023-01-19T18:39:09.885Z,49.50
2023-01-19T18:41:41.655Z,48.90
2023-01-19T18:44:12.272Z,49.20
2023-01-19T18:46:40.213Z,49.10
2023-01-19T18:49:07.369Z,49.50
2023-01-19T18:51:34.125Z,49.70
2023-01-19T18:54:00.841Z,49.90
2023-01-19T18:56:27.650Z,50.00
2023-01-19T18:58:54.523Z,49.90
2023-01-19T19:01:27.051Z,50.20
2023-01-19T19:03:54.659Z,50.20
2023-01-19T19:06:21.867Z,50.20
2023-01-19T19:08:52.463Z,50.30
2023-01-19T19:11:21.145Z,50.50
2023-01-19T19:13:59.482Z,50.40
2023-01-19T19:16:27.136Z,50.60
2023-01-19T19:18:54.008Z,50.90
2023-01-19T19:21:22.611Z,51.40
2023-01-19T19:23:54.242Z,51.60
2023-01-19T19:26:21.297Z,51.90
2023-01-19T19:28:48.086Z,51.90
2023-01-19T19:31:18.039Z,52.00
2023-01-19T19:33:44.860Z,52.20
2023-01-19T19:36:12.671Z,52.60
2023-01-19T19:38:41.175Z,52.70
2023-01-19T19:41:12.215Z,52.80
2023-01-19T19:43:40.607Z,52.90
2023-01-19T19:46:10.414Z,53.10
2023-01-19T19:48:39.379Z,53.00
2023-01-19T19:51:17.934Z,53.30
2023-01-19T19:53:46.137Z,53.40
2023-01-19T19:56:13.737Z,53.50
2023-01-19T19:58:42.127Z,53.60
2023-01-19T20:01:11.455Z,53.80
2023-01-19T20:03:38.295Z,53.80
2023-01-19T20:06:07.101Z,53.90
2023-01-19T20:08:33.697Z,54.10
2023-01-19T20:11:09.481Z,53.90
2023-01-19T20:13:38.716Z,54.00
2023-01-19T20:16:10.385Z,54.20
2023-01-19T20:18:40.846Z,54.30
2023-01-19T20:21:19.360Z,54.40
2023-01-19T20:23:47.366Z,54.30
2023-01-19T20:26:16.740Z,54.20
2023-01-19T20:28:43.625Z,54.10
2023-01-19T20:31:19.038Z,54.00
2023-01-19T20:33:47.037Z,54.00
2023-01-19T20:36:14.642Z,54.20
2023-01-19T20:38:42.214Z,54.20
2023-01-19T20:41:10.353Z,54.20
2023-01-19T20:43:37.150Z,54.10
2023-01-19T20:46:04.244Z,54.20
2023-01-19T20:48:31.521Z,54.20
2023-01-19T20:51:03.068Z,54.50
2023-01-19T20:53:30.077Z,54.30
2023-01-19T20:55:58.198Z,54.50
2023-01-19T20:58:25.075Z,54.60
2023-01-19T21:00:52.011Z,54.70
2023-01-19T21:03:18.846Z,55.00
2023-01-19T21:05:48.381Z,55.10
2023-01-19T21:08:15.506Z,55.00
2023-01-19T21:10:43.026Z,55.00
2023-01-19T21:13:09.783Z,55.00
2023-01-19T21:15:36.439Z,55.00
2023-01-19T21:18:03.578Z,55.00
2023-01-19T21:20:30.437Z,55.10
2023-01-19T21:22:58.824Z,55.10
2023-01-19T21:25:25.698Z,55.10
2023-01-19T21:27:55.089Z,55.40
2023-01-19T21:30:21.924Z,55.40
2023-01-19T21:32:48.694Z,55.20
2023-01-19T21:35:15.458Z,55.10
2023-01-19T21:37:42.140Z,55.10
2023-01-19T21:40:09.704Z,55.30
2023-01-19T21:42:36.483Z,55.30
2023-01-19T21:45:03.292Z,55.50
2023-01-19T21:49:57.055Z,55.50
2023-01-19T21:52:25.783Z,55.80
2023-01-19T21:54:52.523Z,56.30
2023-01-19T21:57:19.730Z,56.40
2023-01-19T21:59:46.528Z,56.60
2023-01-19T22:02:13.265Z,56.80
2023-01-19T22:04:40.708Z,56.70
2023-01-19T22:07:07.452Z,56.80
2023-01-19T22:09:35.365Z,56.90
2023-01-19T22:12:02.587Z,57.20
2023-01-19T22:14:29.396Z,57.30
2023-01-19T22:16:56.229Z,57.50
2023-01-19T22:19:22.989Z,57.80
2023-01-19T22:21:49.769Z,57.90
2023-01-19T22:24:16.405Z,58.20
2023-01-19T22:26:43.127Z,58.60
2023-01-19T22:29:11.820Z,58.80
2023-01-19T22:31:39.128Z,59.00
2023-01-19T22:34:10.248Z,59.20
2023-01-19T22:36:37.762Z,59.30
2023-01-19T22:39:07.099Z,59.50
2023-01-19T22:41:35.349Z,60.00
2023-01-19T22:44:05.075Z,59.40
2023-01-19T22:46:33.664Z,59.50
2023-01-19T22:49:01.658Z,59.50
2023-01-19T22:51:29.767Z,59.60
2023-01-19T22:53:56.446Z,59.70
2023-01-19T22:56:25.924Z,59.70
2023-01-19T22:58:53.278Z,59.60
2023-01-19T23:01:22.499Z,59.60
2023-01-19T23:03:49.958Z,59.60
2023-01-19T23:06:19.291Z,59.60
2023-01-19T23:08:46.206Z,59.80
2023-01-19T23:11:24.741Z,59.90
2023-01-19T23:13:51.829Z,60.10
2023-01-19T23:16:19.460Z,60.10
2023-01-19T23:18:46.356Z,60.30
2023-01-19T23:21:16.443Z,60.40
2023-01-19T23:23:44.657Z,60.50
2023-01-19T23:26:14.599Z,60.40
2023-01-19T23:28:41.369Z,60.40
2023-01-19T23:31:18.195Z,60.30
2023-01-19T23:33:45.201Z,60.30
2023-01-19T23:36:12.366Z,60.20
2023-01-19T23:38:39.938Z,60.20
2023-01-19T23:41:06.715Z,60.40
2023-01-19T23:43:33.710Z,60.40
2023-01-19T23:46:05.094Z,61.20
2023-01-19T23:48:32.942Z,60.80
2023-01-19T23:50:59.632Z,60.90
2023-01-19T23:53:26.300Z,60.90
2023-01-19T23:55:52.932Z,60.80
2023-01-19T23:58:19.557Z,60.80
